Terminal Aerodrome Forecast
Issued by NWS

Home | Current Version | Previous Version | Text Only | Print | Product List | Glossary Off
Versions: 1 2 3 4 5 6 7 8 9 10 11 12 13 14 15 16

000
FTUS43 KMPX 231728
TAFRWF
TAF
KRWF 231728Z 2318/2418 21006KT P6SM SKC
     FM240100 VRB03KT P6SM OVC100
     FM241300 01005KT P6SM OVC050
     FM241600 02008G20KT P6SM OVC050
      AMD NOT SKED=

USA.gov is the U.S. government's official web portal to all federal, state and local government web resources and services.